EST,Max TemperatureF,Mean TemperatureF,Min TemperatureF,Max Dew PointF,MeanDew PointF,Min DewpointF,Max Humidity, Mean Humidity, Min Humidity, Max Sea Level PressureIn, Mean Sea Level PressureIn, Min Sea Level PressureIn, Max VisibilityMiles, Mean VisibilityMiles, Min VisibilityMiles, Max Wind SpeedMPH, Mean Wind SpeedMPH, Max Gust SpeedMPH,PrecipitationIn, CloudCover, Events, WindDirDegrees
2013-1-1,37,30,22,25,17,6,69,56,43,29.95,29.83,29.77,10,10,10,24,11,29,T,6,Snow,274
2013-1-2,31,24,16,11,8,5,67,55,43,30.11,30.00,29.93,10,10,10,21,9,28,0.00,4,,296
2013-1-3,26,18,9,11,1,-6,62,44,26,30.15,30.10,30.02,10,10,10,16,6,23,0.00,5,,294
2013-1-4,37,30,22,22,18,12,68,60,52,30.01,29.94,29.86,10,10,10,21,11,26,0.00,3,,247
2013-1-5,42,32,22,21,19,17,81,60,39,30.26,30.13,29.90,10,10,7,17,8,24,0.00,3,,263
2013-1-6,42,33,24,31,26,19,100,79,57,30.24,30.07,29.95,10,7,1,20,5,23,0.03,6,Snow,233
2013-1-7,42,33,23,28,22,16,78,61,43,30.41,30.23,30.00,10,10,9,21,7,26,0.00,1,,306
2013-1-8,48,34,20,30,25,17,91,69,46,30.39,30.34,30.30,10,10,6,25,7,32,0.00,3,,230
2013-1-9,46,35,23,36,30,23,92,77,62,30.40,30.26,30.05,10,7,2,22,6,26,T,4,Fog-Rain,214
2013-1-10,47,41,34,30,22,20,62,48,34,30.53,30.35,30.11,10,10,10,35,10,47,0.00,1,,303
2013-1-11,41,34,26,39,28,20,92,77,61,30.52,30.39,30.21,10,9,6,10,1,15,0.20,6,Rain,107
2013-1-12,44,42,39,43,41,39,100,95,89,30.21,30.16,30.12,10,2,0,8,3,10,0.05,8,Fog-Rain,54
2013-1-13,55,49,42,50,45,41,100,92,83,30.17,30.12,30.04,10,4,0,16,5,21,0.00,8,Fog,187
2013-1-14,62,51,40,54,45,28,100,71,41,30.26,30.05,29.94,10,7,0,18,10,24,0.01,7,Fog-Rain,255
2013-1-15,42,39,36,32,27,24,89,69,49,30.31,30.27,30.23,10,10,7,10,5,14,0.13,7,Rain,344
2013-1-16,37,35,32,33,31,24,100,80,59,30.24,29.99,29.79,10,3,1,14,5,16,0.54,8,Rain-Snow,5
2013-1-17,42,37,31,31,26,18,92,69,46,30.09,29.98,29.88,10,10,10,20,8,26,T,7,Snow,275
2013-1-18,33,26,18,16,4,-4,53,40,26,30.49,30.31,30.05,10,10,9,22,12,33,T,4,Snow,323
2013-1-19,49,35,20,32,25,9,70,56,42,30.39,30.16,29.94,10,10,10,32,14,43,0.00,5,,210
2013-1-20,55,43,30,34,25,6,70,49,27,29.95,29.78,29.61,10,10,10,33,15,45,0.00,3,,251
2013-1-21,30,25,20,25,15,4,92,63,34,30.12,29.96,29.79,10,5,1,20,6,26,0.11,6,Snow,342
2013-1-22,25,19,13,22,7,-5,88,60,31,30.11,29.89,29.77,10,9,3,22,11,33,0.01,4,Snow,302
2013-1-23,16,13,9,3,-6,-11,61,49,36,30.18,30.14,30.09,10,10,10,23,12,31,T,3,,291
2013-1-24,20,12,4,-7,-9,-10,54,41,28,30.26,30.16,30.10,10,10,10,23,12,31,0.00,2,,306
2013-1-25,24,17,9,14,-2,-9,84,55,25,30.34,30.21,30.06,10,8,1,17,8,22,0.03,6,Snow,285
2013-1-26,26,19,12,12,3,-6,88,62,35,30.27,30.09,30.01,10,10,5,17,9,24,0.01,3,Snow,326
2013-1-27,32,22,11,2,0,-2,63,45,27,30.48,30.39,30.28,10,10,10,18,9,25,0.00,1,,303
2013-1-28,33,26,19,29,20,1,92,65,37,30.47,30.20,30.01,10,4,1,14,3,16,0.12,8,Rain-Snow,89
2013-1-29,35,32,29,34,30,27,96,89,82,30.20,30.12,30.00,6,4,1,10,4,13,0.05,8,Rain,2
2013-1-30,60,47,34,56,46,33,100,90,80,30.15,29.88,29.51,9,4,0,36,13,46,0.02,8,Fog-Rain,193
2013-1-31,62,47,31,58,39,10,93,63,33,29.64,29.30,29.04,10,8,2,43,23,60,0.62,6,Rain,229